Terminal Aerodrome Forecast
Issued by NWS

Home | Current Version | Previous Version | Text Only | Print | Product List | Glossary On
Versions: 1 2 3 4 5 6 7 8 9 10 11 12 13 14 15 16 17 18 19 20 21 22 23 24 25 26 27
427
FTUS43 KLSX 220406 AAC
TAFSUS
TAF AMD
KSUS 220406Z 2204/2224 00000KT 1/4SM FG BKN020
     FM220900 00000KT 1/4SM FG VV002
     FM221500 20005KT 3SM BR BKN010
     FM221800 20007KT P6SM SKC=

USA.gov is the U.S. government's official web portal to all federal, state and local government web resources and services.